AA3087 / N730SK 7700 Squawk Report (19th of November, 2020)

Aircraft CRJ7 Reg No. N730SK Age N/A
Model Regional-Jet Jet engines 2 First flight 01-05
Registered 02-10-16 Rollout 01-05 Delivered 28-01-05
Construction No. 10193 Line No. N/A Series 700
ADSHEX A9CCA5 Airline name Envoy Air Owner SkyWest Airlines
Airfield based Chicago O`Hare~IL~N First tracked N/A

Flight history for N730SK

Route Flight No Date Playback
Fort Wayne (FWA) - Dallas Fort Worth (DFW) AA3087 2020-11-19 13:00:00
Chicago Ohare Intl (ORD) - Fort Wayne (FWA) AA3299 2020-11-19 01:25:00
Chicago Ohare Intl (ORD) - Colorado Springs Municipal (COS) - Chicago Ohare Intl (ORD) AA2958 2020-11-18 23:24:00
Baltimore Washington Intl (BWI) - Chicago Ohare Intl (ORD) AA2976 2020-11-18 13:02:00
Chicago Ohare Intl (ORD) - Baltimore Washington Intl (BWI) AA2975 2020-11-17 02:50:00
???? AA3247 2020-11-16 23:25:00
Nashville Intl (BNA) - Chicago Ohare Intl (ORD) AA3271 2020-11-16 13:09:00
Chicago Ohare Intl (ORD) - Nashville Intl (BNA) AA3227 2020-11-16 01:52:00
Chicago Ohare Intl (ORD) - General Mitchell Intl (MKE) - Chicago Ohare Intl (ORD) AA2999 2020-11-15 23:20:00
Chicago Ohare Intl (ORD) - Nashville Intl (BNA) - Chicago Ohare Intl (ORD) AA3138 2020-11-15 17:56:00
Fort Wayne (FWA) - Chicago Ohare Intl (ORD) AA3260 2020-11-15 12:59:00
Chicago Ohare Intl (ORD) - Fort Wayne (FWA) AA3299 2020-11-15 12:14:00
Chicago Ohare Intl (ORD) - Colorado Springs Municipal (COS) - Chicago Ohare Intl (ORD) AA2958 2020-11-14 22:58:00
Eppley Airfield (OMA) - Chicago Ohare Intl (ORD) AA3119 2020-11-14 14:29:00
Phoenix Sky Harbor Intl (PHX) - Eppley Airfield (OMA) AA3176 2020-11-14 11:54:00
Monterey Peninsula (MRY) - Phoenix Sky Harbor Intl (PHX) AA2951 2020-11-14 02:04:00
Phoenix Sky Harbor Intl (PHX) - Monterey Peninsula (MRY) AA3298 2020-11-14 00:28:00
Albuquerque International Sunport (ABQ) - Phoenix Sky Harbor Intl (PHX) AA3147 2020-11-13 15:12:00
Phoenix Sky Harbor Intl (PHX) - Albuquerque International Sunport (ABQ) AA3100 2020-11-13 03:57:00
Bob Hope (BUR) - Phoenix Sky Harbor Intl (PHX) AA3270 2020-11-13 02:04:00
Time Lat Lon Altitude Heading Speed Vertical Rate
2020-11-19 18:23:26 GMT 40.945000 -85.240555 4,500 230 166
We lost coverage of the aircraft here for a total of 324 minutes
2020-11-19 12:59:04 GMT 41.156937 -84.963196 2,775 225 105 -64
2020-11-19 12:55:47 GMT 41.225079 -84.873756 2,775 226 108 64
2020-11-19 12:55:33 GMT 41.229675 -84.867676 2,775 226 108 64
2020-11-19 12:55:24 GMT 41.232994 -84.863144 2,775 226 109 -64
2020-11-19 12:54:49 GMT 41.245190 -84.846603 2,775 226 111 -64
We lost coverage of the aircraft here for a total of 7 minutes
2020-11-19 12:47:38 GMT 41.021927 -85.244606 3,900 47 329 -1600
2020-11-19 12:47:25 GMT 41.008144 -85.264206 4,150 47 333 -1536
2020-11-19 12:47:17 GMT 40.999767 -85.276192 4,375 47 335 -1600
2020-11-19 12:47:04 GMT 40.984634 -85.297668 4,775 47 335 -1792
2020-11-19 12:46:57 GMT 40.978214 -85.306839 4,950 46 335 -1856
2020-11-19 12:46:44 GMT 40.964993 -85.325256 5,325 46 333 -2112
2020-11-19 12:46:36 GMT 40.955109 -85.338867 5,675 45 329 -2240
2020-11-19 12:46:12 GMT 40.931053 -85.371262 6,975 45 325 -1792
2020-11-19 12:45:52 GMT 40.909782 -85.399414 6,975 45 325 -1600
2020-11-19 12:45:47 GMT 40.903519 -85.407776 7,125 45 329 -1408
2020-11-19 12:45:33 GMT 40.885296 -85.432869 7,600 47 329 -2176
2020-11-19 12:45:24 GMT 40.880356 -85.440308 7,825 51 328 -2304
2020-11-19 12:45:12 GMT 40.869930 -85.461334 8,150 61 332 -1408
2020-11-19 12:45:04 GMT 40.863834 -85.476440 8,375 62 333 -1728
2020-11-19 12:44:54 GMT 40.856850 -85.493668 8,575 59 335 -960
2020-11-19 12:44:44 GMT 40.847588 -85.510460 8,800 42 329 -1792
2020-11-19 12:44:33 GMT 40.834740 -85.523636 9,100 27 318 -1664
2020-11-19 12:44:23 GMT 40.821426 -85.531059 9,350 15 305 -1536
2020-11-19 12:44:19 GMT 40.815140 -85.532936 9,475 8 298 -1664
2020-11-19 12:44:16 GMT 40.811417 -85.533569 9,525 0 291 -1792
2020-11-19 12:44:13 GMT 40.807507 -85.533867 9,625 0 291 -1792
2020-11-19 12:44:08 GMT 40.793121 -85.531998 9,800 351 280 -704
2020-11-19 12:44:02 GMT 40.781994 -85.527069 9,800 345 277 64
2020-11-19 12:43:53 GMT 40.781994 -85.527069 9,775 332 270 64
2020-11-19 12:43:50 GMT 40.779808 -85.525444 9,775 312 259 0
2020-11-19 12:43:41 GMT 40.771271 -85.516113 9,775 308 257 0
2020-11-19 12:43:30 GMT 40.764725 -85.501221 9,800 292 249 0
2020-11-19 12:43:23 GMT 40.763233 -85.488991 9,800 267 244 0
2020-11-19 12:43:17 GMT 40.763840 -85.481621 9,800 255 245 64
2020-11-19 12:43:10 GMT 40.770309 -85.464661 9,775 241 247 64
2020-11-19 12:43:04 GMT 40.770309 -85.464661 9,775 231 250 64
2020-11-19 12:43:00 GMT 40.773376 -85.460083 9,775 228 251 0
2020-11-19 12:42:51 GMT 40.785393 -85.442673 9,775 228 252 64
2020-11-19 12:42:46 GMT 40.785393 -85.442673 9,775 228 252 64
2020-11-19 12:42:40 GMT 40.789398 -85.436890 9,775 228 253 0
2020-11-19 12:42:36 GMT 40.792656 -85.432182 9,775 228 254 0
2020-11-19 12:42:29 GMT 40.797821 -85.424744 9,775 228 255 640
2020-11-19 12:42:26 GMT 40.801483 -85.419495 9,775 228 256 64
2020-11-19 12:42:17 GMT 40.807663 -85.410706 9,775 228 258 64
2020-11-19 12:42:08 GMT 40.815765 -85.399109 9,750 228 256 384
2020-11-19 12:42:02 GMT 40.820820 -85.391861 9,725 228 255 640
2020-11-19 12:41:58 GMT 40.823193 -85.388428 9,650 228 248 1984
2020-11-19 12:41:47 GMT 40.832062 -85.375854 9,300 228 244 3008
2020-11-19 12:41:37 GMT 40.839207 -85.365639 8,800 228 245 3072
2020-11-19 12:41:32 GMT 40.843964 -85.358948 8,525 228 244 2432
2020-11-19 12:41:26 GMT 40.847820 -85.353287 8,350 229 242 1984
2020-11-19 12:41:22 GMT 40.850876 -85.348755 8,250 229 239 1728
2020-11-19 12:41:12 GMT 40.857651 -85.338989 8,025 228 234 2496
2020-11-19 12:41:02 GMT 40.865089 -85.328499 6,625 228 221 2048
2020-11-19 12:40:55 GMT 40.870331 -85.321045 7,225 237 198 2432
2020-11-19 12:40:38 GMT 40.881866 -85.304504 6,800 237 198 2432
2020-11-19 12:40:35 GMT 40.885155 -85.299911 6,425 227 209 2752
2020-11-19 12:40:23 GMT 40.892166 -85.289917 5,925 237 198 2432
2020-11-19 12:40:13 GMT 40.897430 -85.279785 5,525 237 197 2432
2020-11-19 12:40:03 GMT 40.902378 -85.269951 5,075 234 194 2560
2020-11-19 12:39:43 GMT 40.916718 -85.254845 4,425 212 200 2944
2020-11-19 12:39:37 GMT 40.921646 -85.250916 3,975 212 191 1600
2020-11-19 12:39:31 GMT 40.925514 -85.247849 3,850 211 186 1152
2020-11-19 12:39:21 GMT 40.932678 -85.242188 3,675 211 172 1088
2020-11-19 12:38:56 GMT 40.948891 -85.229164 2,900 221 129

Making use of Plane Finder data

You are free to use the raw flight data, aircraft information and images provided in this report for your own purposes provided the data is correctly attributed to Plane Finder. We ask that you please credit Plane Finder and link to planefinder.net in close proximity to the content.

Optionally one of the following logos (no smaller then 150x24px) can be used and must link to planefinder.net

Embedding the Plane Finder map

You are welcome to embed the Plane Finder playback map on your website to offer visitors a more interactive experience. We suggest using the following HTML code:

<iframe src="//planefinder.net/data/report/AA3087-N730SK-7700-squawk-2020-11-19/map" width="800" height="600" seamless="seamless"></iframe>

Where our data comes from

Plane Finder has a global network of data feeds and antenna radars that receive data broadcast directly from aircraft. The primary technologies used are ADS-B and MLAT. We also show feeds from the FAA and a FLARM glider feed.

Click here to find out more about the Plane Finder network.

How we collect our data